sensor_id;sensor_type;location;lat;lon;timestamp;P1;durP1;ratioP1;P2;durP2;ratioP2
22439;SDS011;11387;51.612;7.210;2023-11-18T00:00:33;133.57;;;41.92;;
22439;SDS011;11387;51.612;7.210;2023-11-18T00:03:03;114.95;;;41.83;;
22439;SDS011;11387;51.612;7.210;2023-11-18T00:05:33;134.70;;;44.45;;
22439;SDS011;11387;51.612;7.210;2023-11-18T00:08:01;139.25;;;46.28;;
22439;SDS011;11387;51.612;7.210;2023-11-18T00:10:30;127.28;;;44.05;;
22439;SDS011;11387;51.612;7.210;2023-11-18T00:12:58;148.27;;;46.92;;
22439;SDS011;11387;51.612;7.210;2023-11-18T00:15:28;168.57;;;50.03;;
22439;SDS011;11387;51.612;7.210;2023-11-18T00:17:57;173.55;;;45.45;;
22439;SDS011;11387;51.612;7.210;2023-11-18T00:20:27;149.57;;;45.38;;
22439;SDS011;11387;51.612;7.210;2023-11-18T00:22:58;198.38;;;47.88;;
22439;SDS011;11387;51.612;7.210;2023-11-18T00:25:26;177.32;;;49.78;;
22439;SDS011;11387;51.612;7.210;2023-11-18T00:27:55;290.05;;;47.55;;
22439;SDS011;11387;51.612;7.210;2023-11-18T00:30:23;263.80;;;45.95;;
22439;SDS011;11387;51.612;7.210;2023-11-18T00:32:52;214.95;;;46.05;;
22439;SDS011;11387;51.612;7.210;2023-11-18T00:35:20;311.50;;;55.65;;
22439;SDS011;11387;51.612;7.210;2023-11-18T00:37:50;243.02;;;50.20;;
22439;SDS011;11387;51.612;7.210;2023-11-18T00:40:19;219.45;;;45.28;;
22439;SDS011;11387;51.612;7.210;2023-11-18T00:42:47;175.55;;;41.63;;
22439;SDS011;11387;51.612;7.210;2023-11-18T00:45:15;148.60;;;38.13;;
22439;SDS011;11387;51.612;7.210;2023-11-18T00:47:45;119.10;;;38.17;;
22439;SDS011;11387;51.612;7.210;2023-11-18T00:50:13;145.57;;;36.03;;
22439;SDS011;11387;51.612;7.210;2023-11-18T00:52:42;104.75;;;37.85;;
22439;SDS011;11387;51.612;7.210;2023-11-18T00:55:12;106.72;;;36.15;;
22439;SDS011;11387;51.612;7.210;2023-11-18T00:57:41;101.32;;;34.80;;
22439;SDS011;11387;51.612;7.210;2023-11-18T01:00:11;103.07;;;35.97;;
22439;SDS011;11387;51.612;7.210;2023-11-18T01:02:43;94.85;;;36.15;;
22439;SDS011;11387;51.612;7.210;2023-11-18T01:05:11;112.93;;;39.08;;
22439;SDS011;11387;51.612;7.210;2023-11-18T01:07:40;98.05;;;37.30;;
22439;SDS011;11387;51.612;7.210;2023-11-18T01:10:10;112.93;;;38.35;;
22439;SDS011;11387;51.612;7.210;2023-11-18T01:12:42;103.78;;;36.70;;
22439;SDS011;11387;51.612;7.210;2023-11-18T01:15:12;115.30;;;40.08;;
22439;SDS011;11387;51.612;7.210;2023-11-18T01:17:41;105.25;;;39.97;;
22439;SDS011;11387;51.612;7.210;2023-11-18T01:20:11;108.75;;;37.70;;
22439;SDS011;11387;51.612;7.210;2023-11-18T01:22:41;111.63;;;37.90;;
22439;SDS011;11387;51.612;7.210;2023-11-18T01:25:12;124.20;;;38.10;;
22439;SDS011;11387;51.612;7.210;2023-11-18T01:27:42;109.25;;;37.15;;
22439;SDS011;11387;51.612;7.210;2023-11-18T01:30:13;108.38;;;38.00;;
22439;SDS011;11387;51.612;7.210;2023-11-18T01:32:42;109.63;;;35.67;;
22439;SDS011;11387;51.612;7.210;2023-11-18T01:35:11;108.07;;;34.97;;
22439;SDS011;11387;51.612;7.210;2023-11-18T01:37:40;96.10;;;33.72;;
22439;SDS011;11387;51.612;7.210;2023-11-18T01:40:08;93.10;;;34.38;;
22439;SDS011;11387;51.612;7.210;2023-11-18T01:42:42;89.63;;;33.20;;
22439;SDS011;11387;51.612;7.210;2023-11-18T01:45:13;95.78;;;34.35;;
22439;SDS011;11387;51.612;7.210;2023-11-18T01:47:44;88.35;;;33.50;;
22439;SDS011;11387;51.612;7.210;2023-11-18T01:50:15;84.68;;;31.63;;
22439;SDS011;11387;51.612;7.210;2023-11-18T01:52:45;91.22;;;32.42;;
22439;SDS011;11387;51.612;7.210;2023-11-18T01:55:15;86.53;;;32.15;;
22439;SDS011;11387;51.612;7.210;2023-11-18T01:57:46;84.57;;;31.52;;
22439;SDS011;11387;51.612;7.210;2023-11-18T02:00:15;95.28;;;33.72;;
22439;SDS011;11387;51.612;7.210;2023-11-18T02:02:45;94.80;;;32.70;;
22439;SDS011;11387;51.612;7.210;2023-11-18T02:05:15;90.60;;;31.90;;
22439;SDS011;11387;51.612;7.210;2023-11-18T02:07:45;86.88;;;32.65;;
22439;SDS011;11387;51.612;7.210;2023-11-18T02:10:14;84.57;;;31.83;;
22439;SDS011;11387;51.612;7.210;2023-11-18T02:12:46;82.82;;;31.30;;
22439;SDS011;11387;51.612;7.210;2023-11-18T02:15:22;85.23;;;32.20;;
22439;SDS011;11387;51.612;7.210;2023-11-18T02:17:53;81.63;;;28.90;;
22439;SDS011;11387;51.612;7.210;2023-11-18T02:20:23;87.30;;;30.75;;
22439;SDS011;11387;51.612;7.210;2023-11-18T02:22:52;82.65;;;29.38;;
22439;SDS011;11387;51.612;7.210;2023-11-18T02:25:21;81.82;;;29.38;;
22439;SDS011;11387;51.612;7.210;2023-11-18T02:27:55;89.72;;;29.02;;
22439;SDS011;11387;51.612;7.210;2023-11-18T02:30:24;75.88;;;29.88;;
22439;SDS011;11387;51.612;7.210;2023-11-18T02:32:57;79.57;;;29.75;;
22439;SDS011;11387;51.612;7.210;2023-11-18T02:35:34;80.32;;;30.92;;
22439;SDS011;11387;51.612;7.210;2023-11-18T02:38:10;76.90;;;28.00;;
22439;SDS011;11387;51.612;7.210;2023-11-18T02:40:40;88.47;;;30.55;;
22439;SDS011;11387;51.612;7.210;2023-11-18T02:43:12;90.15;;;30.48;;
22439;SDS011;11387;51.612;7.210;2023-11-18T02:45:44;79.47;;;29.33;;
22439;SDS011;11387;51.612;7.210;2023-11-18T02:48:13;77.28;;;27.55;;
22439;SDS011;11387;51.612;7.210;2023-11-18T02:50:42;75.82;;;26.98;;
22439;SDS011;11387;51.612;7.210;2023-11-18T02:53:10;82.88;;;30.05;;
22439;SDS011;11387;51.612;7.210;2023-11-18T02:55:39;87.05;;;29.98;;
22439;SDS011;11387;51.612;7.210;2023-11-18T02:58:08;82.50;;;27.75;;
22439;SDS011;11387;51.612;7.210;2023-11-18T03:00:38;80.47;;;28.85;;
22439;SDS011;11387;51.612;7.210;2023-11-18T03:03:07;80.47;;;28.00;;
22439;SDS011;11387;51.612;7.210;2023-11-18T03:05:36;82.38;;;27.98;;
22439;SDS011;11387;51.612;7.210;2023-11-18T03:08:04;77.85;;;27.50;;
22439;SDS011;11387;51.612;7.210;2023-11-18T03:10:34;72.97;;;26.45;;
22439;SDS011;11387;51.612;7.210;2023-11-18T03:13:04;78.30;;;29.25;;
22439;SDS011;11387;51.612;7.210;2023-11-18T03:15:33;77.72;;;28.88;;
22439;SDS011;11387;51.612;7.210;2023-11-18T03:18:04;78.78;;;27.58;;
22439;SDS011;11387;51.612;7.210;2023-11-18T03:20:33;80.22;;;29.70;;
22439;SDS011;11387;51.612;7.210;2023-11-18T03:23:02;81.30;;;25.70;;
22439;SDS011;11387;51.612;7.210;2023-11-18T03:25:30;75.47;;;26.70;;
22439;SDS011;11387;51.612;7.210;2023-11-18T03:27:59;77.15;;;26.30;;
22439;SDS011;11387;51.612;7.210;2023-11-18T03:30:27;77.90;;;26.70;;
22439;SDS011;11387;51.612;7.210;2023-11-18T03:32:56;70.80;;;26.23;;
22439;SDS011;11387;51.612;7.210;2023-11-18T03:35:26;70.30;;;25.42;;
22439;SDS011;11387;51.612;7.210;2023-11-18T03:37:55;71.25;;;26.38;;
22439;SDS011;11387;51.612;7.210;2023-11-18T03:40:24;65.97;;;25.77;;
22439;SDS011;11387;51.612;7.210;2023-11-18T03:42:52;63.95;;;25.67;;
22439;SDS011;11387;51.612;7.210;2023-11-18T03:45:21;64.88;;;25.63;;
22439;SDS011;11387;51.612;7.210;2023-11-18T03:47:50;69.20;;;26.98;;
22439;SDS011;11387;51.612;7.210;2023-11-18T03:50:18;70.50;;;25.42;;
22439;SDS011;11387;51.612;7.210;2023-11-18T03:52:48;63.38;;;24.55;;
22439;SDS011;11387;51.612;7.210;2023-11-18T03:55:17;72.75;;;25.65;;
22439;SDS011;11387;51.612;7.210;2023-11-18T03:57:46;58.22;;;24.58;;
22439;SDS011;11387;51.612;7.210;2023-11-18T04:00:16;63.22;;;25.77;;
22439;SDS011;11387;51.612;7.210;2023-11-18T04:02:45;66.43;;;25.75;;
22439;SDS011;11387;51.612;7.210;2023-11-18T04:05:14;60.83;;;23.38;;
22439;SDS011;11387;51.612;7.210;2023-11-18T04:07:42;60.05;;;24.48;;
22439;SDS011;11387;51.612;7.210;2023-11-18T04:10:12;54.03;;;23.45;;
22439;SDS011;11387;51.612;7.210;2023-11-18T04:12:40;59.28;;;23.88;;
22439;SDS011;11387;51.612;7.210;2023-11-18T04:15:13;56.53;;;22.80;;
22439;SDS011;11387;51.612;7.210;2023-11-18T04:17:42;63.65;;;23.52;;
22439;SDS011;11387;51.612;7.210;2023-11-18T04:20:12;64.80;;;23.92;;
22439;SDS011;11387;51.612;7.210;2023-11-18T04:22:45;60.85;;;22.13;;
22439;SDS011;11387;51.612;7.210;2023-11-18T04:25:14;51.83;;;22.50;;
22439;SDS011;11387;51.612;7.210;2023-11-18T04:27:43;55.03;;;22.80;;
22439;SDS011;11387;51.612;7.210;2023-11-18T04:30:13;61.80;;;23.20;;
22439;SDS011;11387;51.612;7.210;2023-11-18T04:32:42;57.65;;;22.42;;
22439;SDS011;11387;51.612;7.210;2023-11-18T04:35:11;59.05;;;23.98;;
22439;SDS011;11387;51.612;7.210;2023-11-18T04:37:40;57.30;;;21.92;;
22439;SDS011;11387;51.612;7.210;2023-11-18T04:40:11;60.90;;;24.50;;
22439;SDS011;11387;51.612;7.210;2023-11-18T04:42:41;55.83;;;22.90;;
22439;SDS011;11387;51.612;7.210;2023-11-18T04:45:09;57.35;;;22.38;;
22439;SDS011;11387;51.612;7.210;2023-11-18T04:47:38;53.65;;;23.10;;
22439;SDS011;11387;51.612;7.210;2023-11-18T04:50:09;61.75;;;23.00;;
22439;SDS011;11387;51.612;7.210;2023-11-18T04:52:38;53.35;;;22.45;;
22439;SDS011;11387;51.612;7.210;2023-11-18T04:55:07;58.35;;;23.05;;
22439;SDS011;11387;51.612;7.210;2023-11-18T04:57:41;55.03;;;23.38;;
22439;SDS011;11387;51.612;7.210;2023-11-18T05:00:11;59.08;;;23.27;;
22439;SDS011;11387;51.612;7.210;2023-11-18T05:02:43;60.08;;;23.70;;
22439;SDS011;11387;51.612;7.210;2023-11-18T05:05:15;52.08;;;23.35;;
22439;SDS011;11387;51.612;7.210;2023-11-18T05:07:44;54.20;;;23.15;;
22439;SDS011;11387;51.612;7.210;2023-11-18T05:10:12;56.45;;;24.88;;
22439;SDS011;11387;51.612;7.210;2023-11-18T05:12:42;60.10;;;23.23;;
22439;SDS011;11387;51.612;7.210;2023-11-18T05:15:11;51.38;;;23.00;;
22439;SDS011;11387;51.612;7.210;2023-11-18T05:17:40;56.78;;;24.13;;
22439;SDS011;11387;51.612;7.210;2023-11-18T05:20:09;53.42;;;26.00;;
22439;SDS011;11387;51.612;7.210;2023-11-18T05:22:38;55.50;;;24.02;;
22439;SDS011;11387;51.612;7.210;2023-11-18T05:25:07;67.28;;;26.27;;
22439;SDS011;11387;51.612;7.210;2023-11-18T05:27:37;74.28;;;27.75;;
22439;SDS011;11387;51.612;7.210;2023-11-18T05:30:09;55.25;;;25.63;;
22439;SDS011;11387;51.612;7.210;2023-11-18T05:32:38;60.60;;;25.55;;
22439;SDS011;11387;51.612;7.210;2023-11-18T05:35:08;59.45;;;24.92;;
22439;SDS011;11387;51.612;7.210;2023-11-18T05:37:38;58.20;;;25.40;;
22439;SDS011;11387;51.612;7.210;2023-11-18T05:40:08;54.95;;;23.70;;
22439;SDS011;11387;51.612;7.210;2023-11-18T05:42:42;53.13;;;23.55;;
22439;SDS011;11387;51.612;7.210;2023-11-18T05:45:14;61.35;;;24.65;;
22439;SDS011;11387;51.612;7.210;2023-11-18T05:47:55;55.08;;;24.17;;
22439;SDS011;11387;51.612;7.210;2023-11-18T05:50:24;57.13;;;25.52;;
22439;SDS011;11387;51.612;7.210;2023-11-18T05:52:53;57.83;;;25.05;;
22439;SDS011;11387;51.612;7.210;2023-11-18T05:55:22;57.72;;;24.67;;
22439;SDS011;11387;51.612;7.210;2023-11-18T05:57:53;54.03;;;23.85;;
22439;SDS011;11387;51.612;7.210;2023-11-18T06:00:23;51.58;;;24.30;;
22439;SDS011;11387;51.612;7.210;2023-11-18T06:03:02;43.53;;;21.92;;
22439;SDS011;11387;51.612;7.210;2023-11-18T06:05:31;44.55;;;21.38;;
22439;SDS011;11387;51.612;7.210;2023-11-18T06:08:02;48.63;;;24.15;;
22439;SDS011;11387;51.612;7.210;2023-11-18T06:10:31;44.65;;;22.08;;
22439;SDS011;11387;51.612;7.210;2023-11-18T06:13:00;41.55;;;21.42;;
22439;SDS011;11387;51.612;7.210;2023-11-18T06:15:29;47.40;;;20.55;;
22439;SDS011;11387;51.612;7.210;2023-11-18T06:17:58;42.90;;;22.13;;
22439;SDS011;11387;51.612;7.210;2023-11-18T06:20:26;42.72;;;21.95;;
22439;SDS011;11387;51.612;7.210;2023-11-18T06:22:55;44.47;;;23.05;;
22439;SDS011;11387;51.612;7.210;2023-11-18T06:25:24;42.38;;;20.90;;
22439;SDS011;11387;51.612;7.210;2023-11-18T06:27:52;41.95;;;21.33;;
22439;SDS011;11387;51.612;7.210;2023-11-18T06:30:21;45.90;;;22.55;;
22439;SDS011;11387;51.612;7.210;2023-11-18T06:32:51;43.20;;;21.25;;
22439;SDS011;11387;51.612;7.210;2023-11-18T06:35:20;38.75;;;20.33;;
22439;SDS011;11387;51.612;7.210;2023-11-18T06:37:49;42.70;;;22.25;;
22439;SDS011;11387;51.612;7.210;2023-11-18T06:40:17;46.85;;;21.60;;
22439;SDS011;11387;51.612;7.210;2023-11-18T06:42:49;43.00;;;22.13;;
22439;SDS011;11387;51.612;7.210;2023-11-18T06:45:17;48.80;;;23.05;;
22439;SDS011;11387;51.612;7.210;2023-11-18T06:48:07;42.92;;;21.80;;
22439;SDS011;11387;51.612;7.210;2023-11-18T06:50:36;43.15;;;22.65;;
22439;SDS011;11387;51.612;7.210;2023-11-18T06:53:06;34.88;;;19.55;;
22439;SDS011;11387;51.612;7.210;2023-11-18T06:55:35;35.03;;;19.42;;
22439;SDS011;11387;51.612;7.210;2023-11-18T06:58:04;36.17;;;20.38;;
22439;SDS011;11387;51.612;7.210;2023-11-18T07:00:33;40.25;;;20.38;;
22439;SDS011;11387;51.612;7.210;2023-11-18T07:03:02;39.35;;;21.20;;
22439;SDS011;11387;51.612;7.210;2023-11-18T07:05:34;39.50;;;22.73;;
22439;SDS011;11387;51.612;7.210;2023-11-18T07:08:02;34.97;;;20.15;;
22439;SDS011;11387;51.612;7.210;2023-11-18T07:10:31;37.55;;;20.75;;
22439;SDS011;11387;51.612;7.210;2023-11-18T07:13:00;36.40;;;19.52;;
22439;SDS011;11387;51.612;7.210;2023-11-18T07:15:28;35.95;;;19.30;;
22439;SDS011;11387;51.612;7.210;2023-11-18T07:17:57;35.15;;;18.95;;
22439;SDS011;11387;51.612;7.210;2023-11-18T07:20:26;39.00;;;19.42;;
22439;SDS011;11387;51.612;7.210;2023-11-18T07:22:55;40.15;;;21.70;;
22439;SDS011;11387;51.612;7.210;2023-11-18T07:25:24;39.63;;;21.00;;
22439;SDS011;11387;51.612;7.210;2023-11-18T07:27:53;40.58;;;21.63;;
22439;SDS011;11387;51.612;7.210;2023-11-18T07:30:22;43.67;;;23.50;;
22439;SDS011;11387;51.612;7.210;2023-11-18T07:32:52;40.80;;;20.05;;
22439;SDS011;11387;51.612;7.210;2023-11-18T07:35:21;40.63;;;20.17;;
22439;SDS011;11387;51.612;7.210;2023-11-18T07:37:50;41.15;;;21.85;;
22439;SDS011;11387;51.612;7.210;2023-11-18T07:40:22;35.67;;;19.33;;
22439;SDS011;11387;51.612;7.210;2023-11-18T07:42:55;35.00;;;19.23;;
22439;SDS011;11387;51.612;7.210;2023-11-18T07:45:24;38.33;;;20.00;;
22439;SDS011;11387;51.612;7.210;2023-11-18T07:47:53;34.72;;;19.85;;
22439;SDS011;11387;51.612;7.210;2023-11-18T07:50:22;34.00;;;19.60;;
22439;SDS011;11387;51.612;7.210;2023-11-18T07:52:53;33.35;;;19.42;;
22439;SDS011;11387;51.612;7.210;2023-11-18T07:55:24;29.73;;;18.60;;
22439;SDS011;11387;51.612;7.210;2023-11-18T07:57:52;32.47;;;17.10;;
22439;SDS011;11387;51.612;7.210;2023-11-18T08:00:21;33.15;;;19.17;;
22439;SDS011;11387;51.612;7.210;2023-11-18T08:02:51;33.22;;;19.73;;
22439;SDS011;11387;51.612;7.210;2023-11-18T08:05:21;33.58;;;18.25;;
22439;SDS011;11387;51.612;7.210;2023-11-18T08:07:53;30.83;;;18.00;;
22439;SDS011;11387;51.612;7.210;2023-11-18T08:10:21;33.30;;;18.65;;
22439;SDS011;11387;51.612;7.210;2023-11-18T08:12:53;31.75;;;18.00;;
22439;SDS011;11387;51.612;7.210;2023-11-18T08:15:21;37.83;;;19.35;;
22439;SDS011;11387;51.612;7.210;2023-11-18T08:17:50;31.00;;;19.40;;
22439;SDS011;11387;51.612;7.210;2023-11-18T08:20:19;33.97;;;18.85;;
22439;SDS011;11387;51.612;7.210;2023-11-18T08:22:52;32.63;;;18.35;;
22439;SDS011;11387;51.612;7.210;2023-11-18T08:25:20;29.23;;;17.73;;
22439;SDS011;11387;51.612;7.210;2023-11-18T08:27:49;35.85;;;18.38;;
22439;SDS011;11387;51.612;7.210;2023-11-18T08:30:21;29.13;;;15.35;;
22439;SDS011;11387;51.612;7.210;2023-11-18T08:32:50;29.83;;;17.83;;
22439;SDS011;11387;51.612;7.210;2023-11-18T08:35:19;30.55;;;17.20;;
22439;SDS011;11387;51.612;7.210;2023-11-18T08:37:49;36.88;;;18.35;;
22439;SDS011;11387;51.612;7.210;2023-11-18T08:40:18;31.13;;;18.02;;
22439;SDS011;11387;51.612;7.210;2023-11-18T08:42:49;29.38;;;17.77;;
22439;SDS011;11387;51.612;7.210;2023-11-18T08:45:20;33.55;;;17.27;;
22439;SDS011;11387;51.612;7.210;2023-11-18T08:47:54;32.95;;;18.65;;
22439;SDS011;11387;51.612;7.210;2023-11-18T08:50:23;29.13;;;16.02;;
22439;SDS011;11387;51.612;7.210;2023-11-18T08:52:53;26.23;;;16.40;;
22439;SDS011;11387;51.612;7.210;2023-11-18T08:55:26;28.55;;;16.70;;
22439;SDS011;11387;51.612;7.210;2023-11-18T08:58:09;33.22;;;18.48;;
22439;SDS011;11387;51.612;7.210;2023-11-18T09:00:48;29.10;;;16.58;;
22439;SDS011;11387;51.612;7.210;2023-11-18T09:03:22;35.65;;;17.92;;
22439;SDS011;11387;51.612;7.210;2023-11-18T09:05:57;31.60;;;16.92;;
22439;SDS011;11387;51.612;7.210;2023-11-18T09:08:31;28.40;;;16.42;;
22439;SDS011;11387;51.612;7.210;2023-11-18T09:11:03;28.02;;;16.02;;
22439;SDS011;11387;51.612;7.210;2023-11-18T09:13:33;27.38;;;16.42;;
22439;SDS011;11387;51.612;7.210;2023-11-18T09:16:05;27.52;;;15.93;;
22439;SDS011;11387;51.612;7.210;2023-11-18T09:18:36;30.83;;;15.75;;
22439;SDS011;11387;51.612;7.210;2023-11-18T09:21:09;30.55;;;17.05;;
22439;SDS011;11387;51.612;7.210;2023-11-18T09:23:43;32.85;;;17.25;;
22439;SDS011;11387;51.612;7.210;2023-11-18T09:26:12;67.32;;;35.97;;
22439;SDS011;11387;51.612;7.210;2023-11-18T09:28:42;34.10;;;17.60;;
22439;SDS011;11387;51.612;7.210;2023-11-18T09:31:12;28.27;;;16.00;;
22439;SDS011;11387;51.612;7.210;2023-11-18T09:33:42;29.27;;;15.57;;
22439;SDS011;11387;51.612;7.210;2023-11-18T09:36:19;32.28;;;17.70;;
22439;SDS011;11387;51.612;7.210;2023-11-18T09:38:50;26.70;;;14.75;;
22439;SDS011;11387;51.612;7.210;2023-11-18T09:41:20;30.88;;;15.25;;
22439;SDS011;11387;51.612;7.210;2023-11-18T09:43:52;31.35;;;15.18;;
22439;SDS011;11387;51.612;7.210;2023-11-18T09:46:26;27.08;;;14.02;;
22439;SDS011;11387;51.612;7.210;2023-11-18T09:49:04;27.20;;;14.48;;
22439;SDS011;11387;51.612;7.210;2023-11-18T09:51:43;20.92;;;12.73;;
22439;SDS011;11387;51.612;7.210;2023-11-18T09:54:17;24.15;;;12.88;;
22439;SDS011;11387;51.612;7.210;2023-11-18T09:56:59;21.67;;;13.40;;
22439;SDS011;11387;51.612;7.210;2023-11-18T09:59:39;26.38;;;14.02;;
22439;SDS011;11387;51.612;7.210;2023-11-18T10:02:13;27.45;;;14.93;;
22439;SDS011;11387;51.612;7.210;2023-11-18T10:04:45;26.77;;;12.95;;
22439;SDS011;11387;51.612;7.210;2023-11-18T10:07:17;25.48;;;14.45;;
22439;SDS011;11387;51.612;7.210;2023-11-18T10:09:47;33.85;;;13.73;;
22439;SDS011;11387;51.612;7.210;2023-11-18T10:12:16;29.55;;;11.95;;
22439;SDS011;11387;51.612;7.210;2023-11-18T10:14:50;20.38;;;10.93;;
22439;SDS011;11387;51.612;7.210;2023-11-18T10:17:35;26.90;;;10.77;;
22439;SDS011;11387;51.612;7.210;2023-11-18T10:20:12;19.90;;;11.25;;
22439;SDS011;11387;51.612;7.210;2023-11-18T10:22:43;50.10;;;23.55;;
22439;SDS011;11387;51.612;7.210;2023-11-18T10:25:12;38.70;;;17.67;;
22439;SDS011;11387;51.612;7.210;2023-11-18T10:27:52;18.42;;;9.35;;
22439;SDS011;11387;51.612;7.210;2023-11-18T10:30:21;17.00;;;9.52;;
22439;SDS011;11387;51.612;7.210;2023-11-18T10:32:57;17.25;;;9.13;;
22439;SDS011;11387;51.612;7.210;2023-11-18T10:35:33;16.40;;;10.18;;
22439;SDS011;11387;51.612;7.210;2023-11-18T10:38:03;21.58;;;9.93;;
22439;SDS011;11387;51.612;7.210;2023-11-18T10:40:32;17.42;;;9.35;;
22439;SDS011;11387;51.612;7.210;2023-11-18T10:43:03;18.35;;;9.45;;
22439;SDS011;11387;51.612;7.210;2023-11-18T10:45:36;15.38;;;8.73;;
22439;SDS011;11387;51.612;7.210;2023-11-18T10:48:11;22.13;;;9.55;;
22439;SDS011;11387;51.612;7.210;2023-11-18T10:50:45;18.70;;;9.05;;
22439;SDS011;11387;51.612;7.210;2023-11-18T10:53:15;15.35;;;9.45;;
22439;SDS011;11387;51.612;7.210;2023-11-18T10:55:46;21.63;;;9.10;;
22439;SDS011;11387;51.612;7.210;2023-11-18T10:58:15;14.98;;;8.82;;
22439;SDS011;11387;51.612;7.210;2023-11-18T11:00:48;16.55;;;9.05;;
22439;SDS011;11387;51.612;7.210;2023-11-18T11:03:19;19.30;;;9.93;;
22439;SDS011;11387;51.612;7.210;2023-11-18T11:05:51;19.30;;;9.77;;
22439;SDS011;11387;51.612;7.210;2023-11-18T11:08:21;15.23;;;8.15;;
22439;SDS011;11387;51.612;7.210;2023-11-18T11:11:05;15.70;;;8.30;;
22439;SDS011;11387;51.612;7.210;2023-11-18T11:13:37;17.33;;;8.05;;
22439;SDS011;11387;51.612;7.210;2023-11-18T11:16:08;15.30;;;8.35;;
22439;SDS011;11387;51.612;7.210;2023-11-18T11:18:42;16.48;;;7.57;;
22439;SDS011;11387;51.612;7.210;2023-11-18T11:21:22;13.40;;;7.15;;
22439;SDS011;11387;51.612;7.210;2023-11-18T11:23:57;17.05;;;8.93;;
22439;SDS011;11387;51.612;7.210;2023-11-18T11:26:39;17.30;;;9.13;;
22439;SDS011;11387;51.612;7.210;2023-11-18T11:29:22;14.27;;;7.93;;
22439;SDS011;11387;51.612;7.210;2023-11-18T11:32:00;16.73;;;7.85;;
22439;SDS011;11387;51.612;7.210;2023-11-18T11:34:43;14.48;;;7.75;;
22439;SDS011;11387;51.612;7.210;2023-11-18T11:37:21;12.80;;;7.13;;
22439;SDS011;11387;51.612;7.210;2023-11-18T11:39:53;12.27;;;7.85;;
22439;SDS011;11387;51.612;7.210;2023-11-18T11:42:25;18.50;;;8.57;;
22439;SDS011;11387;51.612;7.210;2023-11-18T11:44:55;12.32;;;7.25;;
22439;SDS011;11387;51.612;7.210;2023-11-18T11:47:25;12.32;;;6.72;;
22439;SDS011;11387;51.612;7.210;2023-11-18T11:50:00;17.58;;;7.32;;
22439;SDS011;11387;51.612;7.210;2023-11-18T11:52:37;19.73;;;6.97;;
22439;SDS011;11387;51.612;7.210;2023-11-18T11:57:52;9.10;;;6.43;;
22439;SDS011;11387;51.612;7.210;2023-11-18T12:00:26;9.38;;;6.05;;
22439;SDS011;11387;51.612;7.210;2023-11-18T12:03:02;15.30;;;7.47;;
22439;SDS011;11387;51.612;7.210;2023-11-18T12:05:33;17.80;;;6.95;;
22439;SDS011;11387;51.612;7.210;2023-11-18T12:08:02;14.40;;;6.75;;
22439;SDS011;11387;51.612;7.210;2023-11-18T12:10:40;14.27;;;6.67;;
22439;SDS011;11387;51.612;7.210;2023-11-18T12:13:20;16.48;;;7.28;;
22439;SDS011;11387;51.612;7.210;2023-11-18T12:15:49;14.88;;;7.72;;
22439;SDS011;11387;51.612;7.210;2023-11-18T12:18:22;14.23;;;7.63;;
22439;SDS011;11387;51.612;7.210;2023-11-18T12:20:53;16.73;;;7.80;;
22439;SDS011;11387;51.612;7.210;2023-11-18T12:23:29;22.58;;;8.82;;
22439;SDS011;11387;51.612;7.210;2023-11-18T12:26:01;19.58;;;8.77;;
22439;SDS011;11387;51.612;7.210;2023-11-18T12:28:32;16.35;;;8.50;;
22439;SDS011;11387;51.612;7.210;2023-11-18T12:31:06;21.92;;;9.45;;
22439;SDS011;11387;51.612;7.210;2023-11-18T12:33:59;22.27;;;8.27;;
22439;SDS011;11387;51.612;7.210;2023-11-18T12:36:42;21.27;;;9.88;;
22439;SDS011;11387;51.612;7.210;2023-11-18T12:45:39;17.20;;;8.63;;
22439;SDS011;11387;51.612;7.210;2023-11-18T12:48:14;15.13;;;9.02;;
22439;SDS011;11387;51.612;7.210;2023-11-18T12:50:43;18.75;;;9.73;;
22439;SDS011;11387;51.612;7.210;2023-11-18T12:53:14;22.35;;;10.13;;
22439;SDS011;11387;51.612;7.210;2023-11-18T12:55:45;20.83;;;10.00;;
22439;SDS011;11387;51.612;7.210;2023-11-18T12:58:15;16.35;;;9.40;;
22439;SDS011;11387;51.612;7.210;2023-11-18T13:00:45;20.02;;;9.18;;
22439;SDS011;11387;51.612;7.210;2023-11-18T13:03:14;23.27;;;10.75;;
22439;SDS011;11387;51.612;7.210;2023-11-18T13:05:43;22.05;;;9.18;;
22439;SDS011;11387;51.612;7.210;2023-11-18T13:08:12;21.83;;;10.70;;
22439;SDS011;11387;51.612;7.210;2023-11-18T13:10:43;26.55;;;10.70;;
22439;SDS011;11387;51.612;7.210;2023-11-18T13:13:12;23.50;;;10.88;;
22439;SDS011;11387;51.612;7.210;2023-11-18T13:15:44;21.17;;;10.30;;
22439;SDS011;11387;51.612;7.210;2023-11-18T13:18:13;25.35;;;11.27;;
22439;SDS011;11387;51.612;7.210;2023-11-18T13:20:42;23.38;;;10.82;;
22439;SDS011;11387;51.612;7.210;2023-11-18T13:23:22;21.98;;;12.02;;
22439;SDS011;11387;51.612;7.210;2023-11-18T13:25:55;18.25;;;10.55;;
22439;SDS011;11387;51.612;7.210;2023-11-18T13:28:27;18.83;;;11.05;;
22439;SDS011;11387;51.612;7.210;2023-11-18T13:30:56;18.25;;;9.73;;
22439;SDS011;11387;51.612;7.210;2023-11-18T13:33:25;21.73;;;9.35;;
22439;SDS011;11387;51.612;7.210;2023-11-18T13:35:53;23.63;;;9.38;;
22439;SDS011;11387;51.612;7.210;2023-11-18T13:38:22;21.33;;;10.45;;
22439;SDS011;11387;51.612;7.210;2023-11-18T13:40:51;19.88;;;10.20;;
22439;SDS011;11387;51.612;7.210;2023-11-18T13:43:21;23.17;;;9.23;;
22439;SDS011;11387;51.612;7.210;2023-11-18T13:45:50;19.73;;;10.57;;
22439;SDS011;11387;51.612;7.210;2023-11-18T13:48:21;20.70;;;9.50;;
22439;SDS011;11387;51.612;7.210;2023-11-18T13:50:51;22.33;;;10.48;;
22439;SDS011;11387;51.612;7.210;2023-11-18T13:53:20;28.60;;;11.45;;
22439;SDS011;11387;51.612;7.210;2023-11-18T13:55:49;20.20;;;9.93;;
22439;SDS011;11387;51.612;7.210;2023-11-18T13:58:18;22.77;;;9.05;;
22439;SDS011;11387;51.612;7.210;2023-11-18T14:00:48;17.52;;;9.95;;
22439;SDS011;11387;51.612;7.210;2023-11-18T14:03:18;20.17;;;8.93;;
22439;SDS011;11387;51.612;7.210;2023-11-18T14:05:50;22.35;;;9.95;;
22439;SDS011;11387;51.612;7.210;2023-11-18T14:08:19;14.65;;;8.52;;
22439;SDS011;11387;51.612;7.210;2023-11-18T14:10:47;16.63;;;9.27;;
22439;SDS011;11387;51.612;7.210;2023-11-18T14:13:30;20.75;;;9.82;;
22439;SDS011;11387;51.612;7.210;2023-11-18T14:16:00;22.52;;;9.10;;
22439;SDS011;11387;51.612;7.210;2023-11-18T14:18:29;23.83;;;9.20;;
22439;SDS011;11387;51.612;7.210;2023-11-18T14:20:57;22.10;;;8.27;;
22439;SDS011;11387;51.612;7.210;2023-11-18T14:23:27;20.75;;;8.65;;
22439;SDS011;11387;51.612;7.210;2023-11-18T14:25:56;14.70;;;7.95;;
22439;SDS011;11387;51.612;7.210;2023-11-18T14:28:25;19.42;;;8.25;;
22439;SDS011;11387;51.612;7.210;2023-11-18T14:30:54;41.92;;;9.13;;
22439;SDS011;11387;51.612;7.210;2023-11-18T14:33:25;24.35;;;9.63;;
22439;SDS011;11387;51.612;7.210;2023-11-18T14:35:55;15.43;;;8.45;;
22439;SDS011;11387;51.612;7.210;2023-11-18T14:38:24;22.65;;;8.98;;
22439;SDS011;11387;51.612;7.210;2023-11-18T14:40:53;19.58;;;9.68;;
22439;SDS011;11387;51.612;7.210;2023-11-18T14:43:21;22.02;;;8.70;;
22439;SDS011;11387;51.612;7.210;2023-11-18T14:45:50;26.25;;;8.60;;
22439;SDS011;11387;51.612;7.210;2023-11-18T14:48:19;16.83;;;8.27;;
22439;SDS011;11387;51.612;7.210;2023-11-18T14:50:49;15.30;;;8.57;;
22439;SDS011;11387;51.612;7.210;2023-11-18T14:53:17;20.30;;;9.98;;